Time;durP1;ratioP1;P1;durP2;ratioP2;P2;SDS_P1;SDS_P2;PMS_P1;PMS_P2;Temp;Humidity;BMP_temperature;BMP_pressure;BME280_temperature;BME280_humidity;BME280_pressure;Samples;Min_cycle;Max_cycle;Signal;HPM_P1;HPM_P2
2023/03/01 00:00:46;;;;;;;23.55;12.15;;;;;;;-3.60;87.34;100476.31;5056472;28;20402;-59
2023/03/01 00:03:12;;;;;;;26.35;12.43;;;;;;;-3.33;86.33;100470.69;5078942;28;20229;-59
2023/03/01 00:05:43;;;;;;;21.13;11.60;;;;;;;-3.41;84.83;100452.94;5083485;28;20238;-59
2023/03/01 00:08:09;;;;;;;24.58;12.90;;;;;;;-3.45;85.45;100445.44;5080085;28;20099;-59
2023/03/01 00:10:34;;;;;;;23.48;12.82;;;;;;;-3.52;85.75;100453.81;5055819;28;20653;-58
2023/03/01 00:13:00;;;;;;;25.35;12.70;;;;;;;-3.42;86.37;100443.44;5083565;28;20457;-59
2023/03/01 00:15:25;;;;;;;22.80;12.90;;;;;;;-3.55;85.63;100448.78;5083298;28;20443;-59
2023/03/01 00:17:51;;;;;;;26.40;13.43;;;;;;;-3.78;86.41;100447.16;5064335;28;20031;-59
2023/03/01 00:20:16;;;;;;;21.13;12.40;;;;;;;-3.94;87.59;100456.22;5082091;28;20040;-59
2023/03/01 00:22:42;;;;;;;32.33;16.15;;;;;;;-4.16;89.09;100454.41;5082363;28;20025;-59
2023/03/01 00:25:07;;;;;;;28.65;14.50;;;;;;;-4.30;90.04;100452.03;5083051;28;20020;-59
2023/03/01 00:27:33;;;;;;;25.20;15.38;;;;;;;-4.01;91.36;100451.59;5060342;28;20089;-59
2023/03/01 00:29:58;;;;;;;28.02;13.80;;;;;;;-3.95;89.34;100456.34;5062760;28;20220;-59
2023/03/01 00:32:24;;;;;;;31.70;14.35;;;;;;;-3.89;90.61;100455.88;5077978;28;20048;-59
2023/03/01 00:34:54;;;;;;;24.50;13.30;;;;;;;-3.70;94.54;100457.88;5084193;28;20438;-59
2023/03/01 00:37:22;;;;;;;30.87;14.07;;;;;;;-3.64;93.98;100461.78;5077724;28;20070;-59
2023/03/01 00:39:48;;;;;;;27.60;13.15;;;;;;;-4.06;88.91;100453.72;5047055;28;20056;-59
2023/03/01 00:42:13;;;;;;;27.15;13.55;;;;;;;-4.32;89.54;100453.91;5062362;28;20327;-59
2023/03/01 00:44:39;;;;;;;27.52;13.85;;;;;;;-4.30;90.57;100446.78;5073582;28;20025;-59
2023/03/01 00:47:04;;;;;;;30.52;14.48;;;;;;;-4.19;91.80;100452.03;5078233;28;20029;-59
2023/03/01 00:49:30;;;;;;;32.95;16.45;;;;;;;-3.99;95.62;100455.75;5084664;28;20031;-59
2023/03/01 00:51:55;;;;;;;29.85;14.60;;;;;;;-4.09;91.08;100451.31;5077250;28;20033;-58
2023/03/01 00:54:20;;;;;;;30.05;14.57;;;;;;;-4.06;89.96;100443.25;5099716;28;20028;-59
2023/03/01 00:56:46;;;;;;;33.17;15.50;;;;;;;-3.95;89.79;100458.94;5085127;28;20036;-59
2023/03/01 00:59:11;;;;;;;30.52;14.07;;;;;;;-3.80;91.85;100455.13;5081084;28;20386;-59
2023/03/01 01:01:37;;;;;;;36.28;16.40;;;;;;;-3.96;90.29;100454.69;5085000;28;20554;-59
2023/03/01 01:04:05;;;;;;;27.63;15.00;;;;;;;-4.05;89.99;100450.97;5094045;28;20032;-59
2023/03/01 01:06:32;;;;;;;30.27;14.57;;;;;;;-4.22;90.40;100439.19;5087370;28;20039;-59
2023/03/01 01:08:58;;;;;;;28.83;14.38;;;;;;;-4.16;93.73;100443.94;5086429;28;20027;-59
2023/03/01 01:11:25;;;;;;;29.33;13.35;;;;;;;-4.09;92.59;100443.47;5081059;28;20052;-59
2023/03/01 01:13:50;;;;;;;27.83;15.13;;;;;;;-3.87;93.55;100438.22;5082524;28;20445;-59
2023/03/01 01:16:17;;;;;;;28.52;13.82;;;;;;;-3.53;96.02;100440.81;5085293;28;20024;-59
2023/03/01 01:18:42;;;;;;;29.52;13.48;;;;;;;-3.69;92.30;100438.59;5083699;28;20034;-59
2023/03/01 01:21:09;;;;;;;25.17;13.27;;;;;;;-3.95;91.35;100435.38;5088255;28;20032;-59
2023/03/01 01:23:35;;;;;;;25.55;12.98;;;;;;;-4.07;91.40;100425.84;5065169;28;20085;-59
2023/03/01 01:26:05;;;;;;;25.20;12.93;;;;;;;-4.32;90.67;100427.75;5087290;28;20255;-59
2023/03/01 01:28:31;;;;;;;29.85;15.07;;;;;;;-4.55;92.51;100429.50;5082789;28;20042;-59
2023/03/01 01:30:57;;;;;;;28.13;13.25;;;;;;;-4.29;96.75;100427.53;5059775;28;20037;-59
2023/03/01 01:33:22;;;;;;;37.22;14.90;;;;;;;-4.10;99.81;100431.34;5064028;28;20027;-59
2023/03/01 01:35:48;;;;;;;33.83;15.07;;;;;;;-4.19;96.33;100422.41;5090597;28;20035;-58
2023/03/01 01:38:13;;;;;;;35.80;15.98;;;;;;;-3.96;99.47;100433.72;5087192;28;20458;-58
2023/03/01 01:40:45;;;;;;;28.92;14.25;;;;;;;-4.16;91.59;100423.00;5099808;28;20335;-59
2023/03/01 01:43:34;;;;;;;31.23;15.15;;;;;;;-3.65;98.63;100426.06;5089327;28;20368;-59
2023/03/01 01:46:02;;;;;;;29.85;14.15;;;;;;;-3.56;95.29;100420.94;5080062;28;20037;-59
2023/03/01 01:48:40;;;;;;;27.80;13.45;;;;;;;-3.76;90.09;100422.50;5070014;28;20023;-59
2023/03/01 01:51:06;;;;;;;31.17;16.25;;;;;;;-3.55;91.13;100421.75;5047382;28;20545;-58
2023/03/01 01:53:34;;;;;;;31.17;15.68;;;;;;;-3.44;91.22;100424.38;5064209;28;20032;-58
2023/03/01 01:56:00;;;;;;;29.73;15.40;;;;;;;-3.50;91.48;100424.84;5058703;28;20111;-59
2023/03/01 01:58:26;;;;;;;29.90;16.20;;;;;;;-3.33;93.33;100420.88;5046900;28;20096;-59
2023/03/01 02:00:52;;;;;;;25.92;13.65;;;;;;;-3.47;90.48;100419.34;5057248;28;20541;-58
2023/03/01 02:03:22;;;;;;;37.63;13.95;;;;;;;-3.53;90.22;100430.34;5084021;28;20031;-58
2023/03/01 02:05:55;;;;;;;22.70;12.20;;;;;;;-3.41;91.03;100418.03;5061778;28;20070;-59
2023/03/01 02:08:21;;;;;;;27.15;13.20;;;;;;;-3.35;92.65;100413.13;5062668;28;20105;-59
2023/03/01 02:10:46;;;;;;;24.48;12.70;;;;;;;-3.08;97.29;100404.81;5080639;28;20036;-59
2023/03/01 02:13:12;;;;;;;26.80;14.10;;;;;;;-3.51;92.38;100403.06;5047598;28;20037;-60
2023/03/01 02:15:38;;;;;;;23.48;12.00;;;;;;;-3.26;99.75;100403.69;5051430;28;20499;-59
2023/03/01 02:18:03;;;;;;;29.35;14.70;;;;;;;-3.52;96.33;100398.78;5059290;28;20119;-59
2023/03/01 02:20:50;;;;;;;26.00;12.80;;;;;;;-3.80;95.21;100397.50;5040651;28;20055;-59
2023/03/01 02:23:16;;;;;;;27.02;14.20;;;;;;;-3.76;95.57;100392.88;5061692;28;20174;-59
2023/03/01 02:26:07;;;;;;;24.58;13.35;;;;;;;-3.78;95.51;100400.84;5057809;28;20040;-59
2023/03/01 02:28:37;;;;;;;25.25;13.95;;;;;;;-3.74;93.10;100402.25;5062121;28;20035;-59
2023/03/01 02:33:49;;;;;;;24.30;12.45;;;;;;;-3.78;90.75;100387.72;5054562;28;20047;-60
2023/03/01 02:36:17;;;;;;;22.67;13.25;;;;;;;-3.92;91.04;100393.22;5064868;28;20025;-58
2023/03/01 02:38:43;;;;;;;27.83;13.05;;;;;;;-3.96;91.40;100381.34;5065227;28;20048;-60
2023/03/01 02:41:08;;;;;;;24.90;11.75;;;;;;;-3.86;92.65;100384.06;5036583;28;20060;-59
2023/03/01 02:43:34;;;;;;;26.60;14.15;;;;;;;-4.20;92.37;100387.53;5061518;28;20075;-59
2023/03/01 02:46:04;;;;;;;29.45;14.27;;;;;;;-3.56;100.00;100386.03;5058449;28;20059;-60
2023/03/01 02:48:56;;;;;;;41.85;16.25;;;;;;;-3.96;97.14;100384.78;5069939;28;20040;-60
2023/03/01 02:51:25;;;;;;;23.23;12.88;;;;;;;-4.49;93.62;100379.31;5055951;28;20024;-60
2023/03/01 02:54:15;;;;;;;26.73;14.07;;;;;;;-4.32;94.58;100375.38;5057997;28;20032;-59
2023/03/01 02:56:41;;;;;;;25.52;13.68;;;;;;;-4.12;95.52;100376.44;5060269;28;20021;-59
2023/03/01 02:59:06;;;;;;;30.40;14.00;;;;;;;-4.16;94.01;100370.63;5054135;28;20028;-60
2023/03/01 03:01:37;;;;;;;23.98;13.00;;;;;;;-4.34;93.75;100364.22;5064486;28;20028;-60
2023/03/01 03:04:07;;;;;;;27.20;14.95;;;;;;;-4.21;95.36;100361.47;5056655;28;20037;-60
2023/03/01 03:06:33;;;;;;;34.53;14.17;;;;;;;-4.13;94.32;100357.31;5066291;28;20032;-60
2023/03/01 03:08:58;;;;;;;26.25;13.35;;;;;;;-4.12;94.49;100352.88;5063142;28;20282;-59
2023/03/01 03:11:23;;;;;;;28.60;14.55;;;;;;;-4.08;92.59;100345.63;5068388;28;20047;-59
2023/03/01 03:13:49;;;;;;;26.92;13.00;;;;;;;-4.08;92.14;100346.47;5076859;28;20440;-59
2023/03/01 03:16:15;;;;;;;23.77;12.25;;;;;;;-3.86;92.10;100340.38;5090620;28;20089;-59
2023/03/01 03:18:40;;;;;;;23.48;12.25;;;;;;;-3.81;92.99;100343.44;5085719;28;20369;-59
2023/03/01 03:21:10;;;;;;;28.85;12.82;;;;;;;-3.85;91.78;100344.63;5080780;28;20027;-59
2023/03/01 03:23:35;;;;;;;26.60;13.52;;;;;;;-3.99;91.08;100358.03;5045258;28;20115;-58
2023/03/01 03:26:03;;;;;;;26.77;14.10;;;;;;;-4.34;91.28;100346.72;5055567;28;20367;-60
2023/03/01 03:28:32;;;;;;;26.08;13.90;;;;;;;-4.72;91.89;100347.03;5081278;28;20123;-60
2023/03/01 03:30:58;;;;;;;26.75;13.45;;;;;;;-4.76;93.97;100340.41;5082576;28;20103;-60
2023/03/01 03:33:23;;;;;;;32.40;13.30;;;;;;;-4.59;96.89;100347.78;5083334;28;20043;-60
2023/03/01 03:35:49;;;;;;;28.98;15.57;;;;;;;-4.55;95.99;100343.97;5063981;28;20032;-60
2023/03/01 03:38:16;;;;;;;31.45;16.13;;;;;;;-4.31;94.36;100335.19;5086100;28;20036;-60
2023/03/01 03:40:54;;;;;;;27.15;15.20;;;;;;;-4.14;93.59;100345.16;5081094;28;20398;-60
2023/03/01 03:43:21;;;;;;;30.00;14.57;;;;;;;-4.09;94.58;100333.47;5063188;28;20122;-60
2023/03/01 03:45:47;;;;;;;25.42;13.80;;;;;;;-4.16;93.81;100333.16;5084635;28;20096;-60
2023/03/01 03:48:12;;;;;;;30.75;14.32;;;;;;;-4.24;94.46;100328.53;5085931;28;20025;-60
2023/03/01 03:50:38;;;;;;;27.65;15.20;;;;;;;-4.22;93.86;100329.25;5047704;28;20057;-60
2023/03/01 03:53:06;;;;;;;37.92;17.20;;;;;;;-4.08;93.79;100320.28;5074244;28;20028;-60
2023/03/01 03:55:33;;;;;;;23.98;13.00;;;;;;;-4.17;93.36;100311.38;5073784;28;20047;-60
2023/03/01 03:58:01;;;;;;;27.58;12.60;;;;;;;-4.20;92.48;100311.59;5080107;28;20044;-60
2023/03/01 04:00:27;;;;;;;28.52;14.95;;;;;;;-4.29;92.46;100298.41;5076525;28;20166;-60
2023/03/01 04:02:56;;;;;;;27.45;12.73;;;;;;;-4.27;92.46;100302.56;5075703;28;20020;-60
2023/03/01 04:05:21;;;;;;;25.80;13.60;;;;;;;-4.40;93.10;100294.84;5081869;28;20028;-60
2023/03/01 04:07:46;;;;;;;28.88;13.57;;;;;;;-4.28;92.34;100298.28;5084024;28;20078;-60
2023/03/01 04:10:17;;;;;;;26.45;13.68;;;;;;;-4.18;92.79;100294.00;5074068;28;20501;-60
2023/03/01 04:12:43;;;;;;;28.42;14.30;;;;;;;-4.07;95.72;100295.75;5079145;28;20501;-63
2023/03/01 04:15:17;;;;;;;28.75;14.75;;;;;;;-4.26;95.28;100292.94;5081946;28;20032;-60
2023/03/01 04:17:43;;;;;;;24.38;13.68;;;;;;;-4.26;96.77;100293.78;5082401;28;20043;-60
2023/03/01 04:20:10;;;;;;;27.58;13.13;;;;;;;-4.69;96.24;100294.50;5083748;28;20067;-58
2023/03/01 04:22:37;;;;;;;25.63;14.68;;;;;;;-4.71;99.64;100299.03;5076719;28;20333;-59
2023/03/01 04:25:02;;;;;;;35.22;16.13;;;;;;;-4.42;100.00;100302.00;5083593;28;20232;-60
2023/03/01 04:27:28;;;;;;;29.70;15.90;;;;;;;-4.17;96.63;100292.19;5083238;28;20027;-59
2023/03/01 04:29:53;;;;;;;30.20;14.60;;;;;;;-4.86;92.91;100290.56;5087128;28;20029;-59
2023/03/01 04:32:19;;;;;;;25.20;14.40;;;;;;;-4.45;100.00;100285.69;5080432;28;20675;-60
2023/03/01 04:34:44;;;;;;;30.80;15.70;;;;;;;-4.40;100.00;100294.00;5061505;28;20036;-59
2023/03/01 04:37:09;;;;;;;33.25;17.27;;;;;;;-4.02;99.25;100292.75;5080174;28;20048;-60
2023/03/01 04:39:45;;;;;;;29.10;14.52;;;;;;;-4.03;98.19;100296.34;5084514;28;20024;-59
2023/03/01 04:42:11;;;;;;;27.42;13.88;;;;;;;-4.45;95.52;100304.00;5069009;28;20060;-59
2023/03/01 04:44:36;;;;;;;23.80;13.10;;;;;;;-4.67;95.94;100299.59;5087281;28;20028;-60
2023/03/01 04:47:02;;;;;;;28.17;13.68;;;;;;;-4.89;95.62;100295.19;5088085;28;20032;-60
2023/03/01 04:49:27;;;;;;;25.38;13.07;;;;;;;-4.39;100.00;100300.94;5089064;28;20476;-59
2023/03/01 04:51:52;;;;;;;29.88;14.00;;;;;;;-4.70;98.85;100308.53;5073632;28;20043;-59
2023/03/01 04:54:18;;;;;;;32.10;15.13;;;;;;;-4.51;99.24;100304.50;5088740;28;20039;-59
2023/03/01 04:56:43;;;;;;;26.25;14.40;;;;;;;-4.48;97.70;100312.94;5066032;28;20032;-59
2023/03/01 04:59:09;;;;;;;23.75;13.80;;;;;;;-4.69;95.97;100304.97;5090469;28;20032;-59
2023/03/01 05:01:35;;;;;;;27.13;14.65;;;;;;;-4.80;96.97;100308.41;5081539;28;20111;-60
2023/03/01 05:04:02;;;;;;;24.92;12.52;;;;;;;-5.21;95.82;100303.69;5079192;28;20036;-59
2023/03/01 05:06:28;;;;;;;26.35;13.10;;;;;;;-4.76;99.42;100306.41;5065629;28;20035;-60
2023/03/01 05:08:53;;;;;;;28.50;14.50;;;;;;;-4.41;95.62;100308.06;5082988;28;20036;-59
2023/03/01 05:11:19;;;;;;;25.17;13.25;;;;;;;-4.65;96.14;100316.84;5080764;28;20504;-60
2023/03/01 05:13:47;;;;;;;28.52;14.57;;;;;;;-4.91;96.54;100311.00;5084623;28;20470;-60
2023/03/01 05:16:16;;;;;;;33.40;14.95;;;;;;;-4.88;97.78;100309.94;5065187;28;20027;-60
2023/03/01 05:18:43;;;;;;;26.92;13.98;;;;;;;-4.71;99.55;100317.34;5086033;28;20500;-60
2023/03/01 05:21:12;;;;;;;32.65;14.65;;;;;;;-4.65;100.00;100309.00;5084062;28;20036;-60
2023/03/01 05:23:38;;;;;;;31.77;14.70;;;;;;;-4.73;98.34;100314.00;5090927;28;20475;-60
2023/03/01 05:26:04;;;;;;;28.80;14.98;;;;;;;-4.85;97.26;100312.31;5081629;28;20032;-59
2023/03/01 05:28:29;;;;;;;29.27;15.50;;;;;;;-4.94;96.65;100310.38;5092514;28;20024;-60
2023/03/01 05:30:55;;;;;;;35.33;15.65;;;;;;;-5.02;97.78;100313.59;5081566;28;20024;-59
2023/03/01 05:33:21;;;;;;;39.40;18.25;;;;;;;-4.93;100.00;100299.00;5091860;28;20036;-58
2023/03/01 05:35:48;;;;;;;32.88;17.17;;;;;;;-4.85;100.00;100302.69;5093214;28;20088;-60
2023/03/01 05:38:13;;;;;;;30.05;16.50;;;;;;;-4.88;100.00;100299.47;5090768;28;20093;-60
2023/03/01 05:40:43;;;;;;;29.77;16.17;;;;;;;-5.33;96.71;100294.16;5088372;28;20442;-60
2023/03/01 05:43:08;;;;;;;35.42;17.08;;;;;;;-5.56;98.36;100293.25;5089037;28;20478;-60
2023/03/01 05:45:35;;;;;;;33.10;16.35;;;;;;;-5.54;99.27;100292.19;5080230;28;20024;-60
2023/03/01 05:48:01;;;;;;;30.67;16.65;;;;;;;-5.51;100.00;100297.19;5089526;28;20077;-60
2023/03/01 05:50:31;;;;;;;33.45;16.50;;;;;;;-5.50;99.98;100298.84;5082923;28;20035;-60
2023/03/01 05:53:01;;;;;;;35.95;16.02;;;;;;;-5.38;100.00;100301.50;5085080;28;20119;-59
2023/03/01 05:55:27;;;;;;;35.70;19.13;;;;;;;-4.92;100.00;100293.63;5054445;28;20038;-60
2023/03/01 05:57:52;;;;;;;37.00;17.70;;;;;;;-5.14;100.00;100294.44;5067311;28;20228;-60
2023/03/01 06:00:19;;;;;;;32.50;16.75;;;;;;;-4.72;100.00;100294.72;5084015;28;20043;-64
2023/03/01 06:02:44;;;;;;;39.42;17.13;;;;;;;-4.90;100.00;100296.16;5087227;28;20161;-60
2023/03/01 06:05:13;;;;;;;39.97;18.77;;;;;;;-4.68;100.00;100290.09;5086451;28;20460;-59
2023/03/01 06:07:38;;;;;;;34.70;16.70;;;;;;;-4.79;100.00;100293.56;5081694;28;20032;-60
2023/03/01 06:10:04;;;;;;;28.15;15.77;;;;;;;-4.92;100.00;100296.25;5089964;28;20028;-59
2023/03/01 06:12:31;;;;;;;27.75;15.25;;;;;;;-5.11;100.00;100288.16;5072095;28;20485;-59
2023/03/01 06:14:57;;;;;;;34.08;16.10;;;;;;;-5.45;99.56;100285.44;5086503;28;20513;-59
2023/03/01 06:17:22;;;;;;;27.02;15.43;;;;;;;-5.62;100.00;100281.44;5082365;28;20032;-59
2023/03/01 06:19:48;;;;;;;39.13;17.38;;;;;;;-5.49;100.00;100276.16;5061590;28;20035;-60
2023/03/01 06:22:13;;;;;;;39.17;15.68;;;;;;;-5.27;100.00;100283.22;5086933;28;20039;-60
2023/03/01 06:24:39;;;;;;;35.53;16.33;;;;;;;-4.82;100.00;100278.06;5079936;28;20048;-60
2023/03/01 06:27:04;;;;;;;30.15;16.33;;;;;;;-5.24;100.00;100277.78;5079881;28;20036;-60
2023/03/01 06:29:30;;;;;;;40.80;16.38;;;;;;;-5.32;100.00;100270.50;5079757;28;20024;-60
2023/03/01 06:31:55;;;;;;;34.25;15.90;;;;;;;-5.43;100.00;100271.31;5082795;28;20040;-59
2023/03/01 06:34:21;;;;;;;28.13;14.13;;;;;;;-4.70;100.00;100281.53;5083200;28;20046;-59
2023/03/01 06:36:47;;;;;;;34.88;17.70;;;;;;;-4.71;100.00;100277.28;5078121;28;20168;-60
2023/03/01 06:39:12;;;;;;;43.53;19.35;;;;;;;-4.72;100.00;100279.03;5081141;28;20503;-60
2023/03/01 06:41:38;;;;;;;44.08;17.33;;;;;;;-4.50;100.00;100287.84;5076583;28;20321;-59
2023/03/01 06:44:03;;;;;;;41.03;18.30;;;;;;;-4.89;99.41;100287.34;5063263;28;20298;-60
2023/03/01 06:46:29;;;;;;;32.80;16.45;;;;;;;-5.43;98.94;100278.31;5097676;28;20048;-59
2023/03/01 06:48:54;;;;;;;33.00;17.48;;;;;;;-5.23;99.72;100288.13;5084260;28;20023;-58
2023/03/01 06:51:19;;;;;;;36.42;17.98;;;;;;;-5.05;100.00;100285.91;5091180;28;20137;-60
2023/03/01 06:53:46;;;;;;;37.45;18.88;;;;;;;-4.58;100.00;100291.88;5087659;28;20439;-60
2023/03/01 06:56:11;;;;;;;37.47;17.83;;;;;;;-4.30;100.00;100289.72;5079969;28;20032;-58
2023/03/01 06:58:39;;;;;;;33.50;17.02;;;;;;;-4.35;100.00;100297.09;5057730;28;20556;-58
2023/03/01 07:01:06;;;;;;;38.72;19.17;;;;;;;-4.31;100.00;100300.31;5079974;28;20287;-59
2023/03/01 07:03:32;;;;;;;36.92;15.70;;;;;;;-4.51;100.00;100294.03;5084992;28;20032;-59
2023/03/01 07:05:57;;;;;;;39.72;18.77;;;;;;;-4.74;97.97;100294.03;5090805;28;20036;-59
2023/03/01 07:08:22;;;;;;;30.67;16.80;;;;;;;-4.73;98.28;100313.16;5064103;28;20389;-59
2023/03/01 07:10:48;;;;;;;30.42;15.88;;;;;;;-4.29;100.00;100307.09;5084632;28;20028;-59
2023/03/01 07:13:13;;;;;;;40.38;18.15;;;;;;;-4.82;95.51;100304.22;5083244;28;20109;-59
2023/03/01 07:15:39;;;;;;;33.72;16.33;;;;;;;-4.92;94.10;100308.50;5088610;28;20023;-59
2023/03/01 07:18:05;;;;;;;33.70;16.40;;;;;;;-4.89;94.74;100305.66;5089568;28;20036;-59
2023/03/01 07:20:30;;;;;;;37.40;15.73;;;;;;;-5.33;95.05;100294.97;5076649;28;20473;-59
2023/03/01 07:22:58;;;;;;;44.03;17.50;;;;;;;-4.92;97.66;100290.19;5079065;28;20032;-59
2023/03/01 07:25:24;;;;;;;40.50;17.70;;;;;;;-4.44;100.00;100289.97;5077652;28;20080;-59
2023/03/01 07:27:52;;;;;;;35.65;16.75;;;;;;;-4.73;95.39;100285.22;5076726;28;20036;-59
2023/03/01 07:30:18;;;;;;;37.92;18.30;;;;;;;-4.51;98.05;100276.53;5072500;28;20047;-59
2023/03/01 07:32:45;;;;;;;33.42;17.85;;;;;;;-4.52;94.01;100269.63;5081664;28;20036;-59
2023/03/01 07:35:10;;;;;;;37.40;18.38;;;;;;;-4.59;92.85;100271.91;5050883;28;20051;-59
2023/03/01 07:37:36;;;;;;;29.73;16.15;;;;;;;-4.19;99.11;100260.91;5084816;28;20024;-59
2023/03/01 07:40:01;;;;;;;40.28;17.17;;;;;;;-4.96;95.89;100266.06;5076440;28;20028;-58
2023/03/01 07:42:27;;;;;;;36.08;18.88;;;;;;;-4.32;97.28;100262.81;5065724;28;20032;-59
2023/03/01 07:44:52;;;;;;;41.35;19.80;;;;;;;-4.06;94.20;100259.94;5087387;28;20031;-58
2023/03/01 07:47:20;;;;;;;40.05;18.05;;;;;;;-3.91;92.29;100259.53;5066746;28;20038;-59
2023/03/01 07:49:45;;;;;;;37.53;16.15;;;;;;;-4.53;94.46;100272.38;5058308;28;20039;-58
2023/03/01 07:52:11;;;;;;;43.63;16.80;;;;;;;-4.21;93.96;100273.28;5070438;28;20402;-59
2023/03/01 07:54:37;;;;;;;33.08;17.58;;;;;;;-3.64;93.18;100276.59;5074030;28;20036;-60
2023/03/01 07:57:03;;;;;;;36.47;17.92;;;;;;;-3.36;90.71;100275.13;5080301;28;20096;-60
2023/03/01 07:59:29;;;;;;;31.80;16.58;;;;;;;-3.23;88.36;100282.81;5074387;28;20016;-59
2023/03/01 08:01:58;;;;;;;34.83;16.92;;;;;;;-2.73;91.13;100282.13;5077688;28;20414;-59
2023/03/01 08:04:24;;;;;;;38.88;18.08;;;;;;;-2.25;86.90;100278.84;5069971;28;20024;-59
2023/03/01 08:06:51;;;;;;;34.65;17.38;;;;;;;-1.67;81.81;100286.84;5060630;28;20028;-59
2023/03/01 08:09:16;;;;;;;30.27;15.90;;;;;;;-1.22;79.61;100280.16;5080448;28;20387;-59
2023/03/01 08:11:41;;;;;;;35.88;17.45;;;;;;;-0.28;76.38;100286.25;5078560;28;20036;-59
2023/03/01 08:14:07;;;;;;;35.72;16.45;;;;;;;-0.02;73.40;100282.94;5080034;28;20491;-59
2023/03/01 08:16:35;;;;;;;33.85;15.77;;;;;;;0.16;73.24;100282.97;5090106;28;20027;-59
2023/03/01 08:19:06;;;;;;;32.53;17.83;;;;;;;-0.12;72.96;100280.38;5075911;28;20036;-59
2023/03/01 08:21:32;;;;;;;34.60;16.95;;;;;;;0.19;72.33;100280.03;5060170;28;20031;-59
2023/03/01 08:23:57;;;;;;;42.50;17.95;;;;;;;0.98;68.71;100276.56;5077992;28;20028;-60
2023/03/01 08:26:22;;;;;;;28.58;16.48;;;;;;;0.81;67.00;100280.91;5086118;28;20506;-59
2023/03/01 08:28:48;;;;;;;38.47;16.98;;;;;;;0.83;67.71;100270.19;5079369;28;20032;-59
2023/03/01 08:31:20;;;;;;;34.85;17.45;;;;;;;2.29;64.57;100269.19;5065302;28;20040;-59
2023/03/01 08:33:54;;;;;;;35.63;17.10;;;;;;;2.77;61.40;100266.72;5078767;28;20028;-59
2023/03/01 08:36:20;;;;;;;37.67;16.15;;;;;;;2.72;60.46;100266.38;5070784;28;20359;-59
2023/03/01 08:38:46;;;;;;;38.17;19.30;;;;;;;2.87;61.44;100266.53;5061576;28;20038;-59
2023/03/01 08:41:11;;;;;;;29.38;15.90;;;;;;;2.57;60.04;100266.22;5083892;28;20379;-59
2023/03/01 08:43:37;;;;;;;31.23;18.48;;;;;;;3.03;58.58;100266.53;5075838;28;20021;-59
2023/03/01 08:46:03;;;;;;;36.97;16.92;;;;;;;3.22;59.50;100271.47;5081048;28;20032;-59
2023/03/01 08:48:28;;;;;;;35.38;17.42;;;;;;;3.26;59.80;100271.13;5079700;28;20039;-60
2023/03/01 08:50:53;;;;;;;31.80;16.27;;;;;;;2.85;57.71;100268.56;5079250;28;20024;-59
2023/03/01 08:53:19;;;;;;;36.88;16.52;;;;;;;3.00;59.44;100267.69;5081793;28;20024;-59
2023/03/01 08:55:44;;;;;;;33.00;17.60;;;;;;;2.50;62.41;100274.00;5079822;28;20039;-58
2023/03/01 08:58:10;;;;;;;36.28;17.40;;;;;;;3.17;59.08;100272.97;5087804;28;20483;-59
2023/03/01 09:00:35;;;;;;;42.20;18.23;;;;;;;3.42;58.52;100271.91;5079858;28;20323;-60
2023/03/01 09:03:01;;;;;;;37.58;18.45;;;;;;;2.89;58.56;100265.38;5078698;28;20407;-60
2023/03/01 09:05:26;;;;;;;42.03;18.27;;;;;;;3.73;57.53;100273.78;5079182;28;20450;-60
2023/03/01 09:07:52;;;;;;;34.08;16.55;;;;;;;3.31;58.47;100263.50;5078982;28;21165;-60
2023/03/01 09:10:18;;;;;;;31.00;16.67;;;;;;;4.01;57.02;100254.75;5088574;28;20038;-60
2023/03/01 09:12:43;;;;;;;32.60;17.17;;;;;;;3.88;56.66;100252.66;5086275;28;20475;-60
2023/03/01 09:15:09;;;;;;;45.22;18.95;;;;;;;4.01;57.07;100250.25;5080583;28;20029;-60
2023/03/01 09:17:35;;;;;;;33.35;16.83;;;;;;;4.10;55.67;100249.22;5078174;28;20114;-59
2023/03/01 09:20:00;;;;;;;37.95;17.17;;;;;;;3.70;55.37;100233.53;5087439;28;20512;-59
2023/03/01 09:22:26;;;;;;;33.50;16.90;;;;;;;4.10;55.09;100238.63;5085912;28;20024;-59
2023/03/01 09:24:51;;;;;;;29.00;16.83;;;;;;;4.35;54.70;100243.75;5088547;28;20519;-59
2023/03/01 09:27:18;;;;;;;31.23;17.15;;;;;;;4.24;55.78;100238.84;5084545;28;20028;-59
2023/03/01 09:29:44;;;;;;;41.08;18.27;;;;;;;4.50;54.55;100234.03;5092118;28;20031;-59
2023/03/01 09:32:10;;;;;;;34.47;17.98;;;;;;;4.69;55.52;100226.53;5085401;28;20040;-59
2023/03/01 09:35:00;;;;;;;33.08;18.30;;;;;;;4.70;55.28;100230.88;5079517;28;20031;-59
2023/03/01 09:37:20;;;;;;;31.30;16.73;;;;;;;4.71;54.02;100233.31;5090027;28;20050;-59
2023/03/01 09:39:46;;;;;;;42.53;18.17;;;;;;;4.33;54.70;100228.00;5084698;28;20188;-59
2023/03/01 09:42:11;;;;;;;41.95;22.58;;;;;;;3.83;56.59;100225.84;5082562;28;20024;-59
2023/03/01 09:44:51;;;;;;;39.08;20.50;;;;;;;3.38;57.50;100230.03;5083185;28;20070;-59
2023/03/01 09:47:26;;;;;;;40.70;22.35;;;;;;;3.29;57.45;100215.97;5063818;28;20027;-59
2023/03/01 09:50:01;;;;;;;32.80;18.38;;;;;;;2.79;60.15;100220.53;5061000;28;20032;-59
2023/03/01 09:52:38;;;;;;;36.58;18.40;;;;;;;2.53;59.47;100211.97;5072570;28;20191;-60
2023/03/01 09:55:09;;;;;;;41.00;20.05;;;;;;;2.71;59.78;100215.28;5055508;28;20032;-59
2023/03/01 09:57:55;;;;;;;39.40;17.42;;;;;;;2.38;60.95;100204.69;5074450;28;20024;-59
2023/03/01 10:00:24;;;;;;;38.97;20.33;;;;;;;2.51;62.24;100200.72;5064908;28;20393;-59
2023/03/01 10:02:52;;;;;;;40.22;17.58;;;;;;;2.68;60.70;100205.03;5087493;28;20023;-59
2023/03/01 10:05:37;;;;;;;27.15;14.98;;;;;;;2.86;59.97;100225.19;5053887;28;20763;-59
2023/03/01 10:08:32;;;;;;;29.33;15.65;;;;;;;2.48;62.89;100203.72;5043173;28;20416;-59
2023/03/01 10:10:58;;;;;;;29.80;16.60;;;;;;;3.40;59.64;100209.47;5080546;28;20086;-59
2023/03/01 10:13:45;;;;;;;36.03;17.13;;;;;;;4.18;58.01;100203.25;5072643;28;20019;-60
2023/03/01 10:16:15;;;;;;;36.53;16.67;;;;;;;3.98;57.17;100208.19;5084888;28;20394;-59
2023/03/01 10:18:40;;;;;;;33.58;16.55;;;;;;;4.43;57.11;100201.22;5079237;28;20031;-60
2023/03/01 10:21:16;;;;;;;31.73;15.43;;;;;;;3.64;56.97;100198.78;5089577;28;20024;-59
2023/03/01 10:23:41;;;;;;;28.10;16.20;;;;;;;3.99;58.66;100196.56;5078051;28;20029;-59
2023/03/01 10:26:19;;;;;;;34.28;17.80;;;;;;;4.16;56.05;100186.66;5082451;28;20039;-59
2023/03/01 10:28:50;;;;;;;32.70;16.58;;;;;;;4.80;54.79;100180.97;5080591;28;20036;-59
2023/03/01 10:31:19;;;;;;;32.53;16.63;;;;;;;4.87;55.03;100171.28;5056713;28;20448;-59
2023/03/01 10:33:44;;;;;;;32.63;17.13;;;;;;;4.39;54.98;100170.72;5056680;28;20023;-60
2023/03/01 10:36:10;;;;;;;34.72;18.48;;;;;;;4.22;57.67;100161.25;5098493;28;20021;-59
2023/03/01 10:39:16;;;;;;;30.55;15.82;;;;;;;4.16;56.38;100156.66;5084502;28;20347;-59
2023/03/01 10:42:01;;;;;;;31.73;17.05;;;;;;;4.33;55.21;100179.41;5052717;28;20401;-59
2023/03/01 10:44:41;;;;;;;32.75;15.77;;;;;;;3.85;56.48;100176.13;5059015;28;20046;-59
2023/03/01 10:47:16;;;;;;;29.65;15.45;;;;;;;4.21;54.95;100167.56;5082955;28;20046;-59
2023/03/01 10:49:58;;;;;;;27.40;15.60;;;;;;;4.41;55.60;100158.09;5079018;28;20390;-59
2023/03/01 10:52:27;;;;;;;29.25;16.45;;;;;;;4.38;54.20;100155.00;5058370;28;20325;-61
2023/03/01 10:55:14;;;;;;;30.38;15.00;;;;;;;4.10;54.27;100145.75;5056202;28;20036;-59
2023/03/01 10:57:43;;;;;;;24.65;13.88;;;;;;;4.00;55.11;100153.13;5085209;28;20048;-59
2023/03/01 11:00:18;;;;;;;34.13;16.60;;;;;;;3.68;56.63;100147.03;5082291;28;20397;-59
2023/03/01 11:02:47;;;;;;;27.63;15.73;;;;;;;3.88;54.98;100139.44;5077687;28;20481;-59
2023/03/01 11:05:19;;;;;;;30.65;16.05;;;;;;;3.91;55.30;100143.56;5074683;28;20352;-59
2023/03/01 11:07:56;;;;;;;34.55;16.08;;;;;;;4.52;54.30;100135.63;5081762;28;20028;-59
2023/03/01 11:10:24;;;;;;;28.60;15.75;;;;;;;4.76;53.04;100137.19;5084817;28;20092;-61
2023/03/01 11:12:53;;;;;;;33.30;14.77;;;;;;;4.30;53.47;100134.66;5077313;28;20040;-60
2023/03/01 11:15:28;;;;;;;26.58;14.82;;;;;;;4.67;53.61;100120.53;5064095;28;20555;-60